Time,TemperatureF,DewpointF,PressureIn,WindDirection,WindDirectionDegrees,WindSpeedMPH,WindSpeedGustMPH,Humidity,HourlyPrecipIn,Conditions,Clouds,dailyrainin,SolarRadiationWatts/m^2,SoftwareType,DateUTC
2013-10-14 00:03:00,54.0,50.0,-100.00,North,349,0.0,3.0,85,0.00,,,0.00,0.000000,,2013-10-14 05:03:00,
2013-10-14 00:12:00,54.0,50.0,-100.00,North,349,0.0,3.0,85,0.00,,,0.00,0.000000,,2013-10-14 05:12:00,
2013-10-14 00:23:00,54.0,50.0,-100.00,North,349,0.0,3.0,85,0.00,,,0.00,0.000000,,2013-10-14 05:23:00,
2013-10-14 00:31:00,55.0,45.0,-100.00,ESE,108,1.0,4.0,70,0.00,,,0.00,0.000000,,2013-10-14 05:31:00,
2013-10-14 00:52:00,55.0,45.0,-100.00,ESE,108,1.0,4.0,70,0.00,,,0.00,0.000000,,2013-10-14 05:52:00,
2013-10-14 01:02:00,55.0,45.0,-100.00,ESE,108,1.0,4.0,70,0.00,,,0.00,0.000000,,2013-10-14 06:02:00,
2013-10-14 01:13:00,55.0,45.0,-100.00,ESE,108,1.0,4.0,70,0.00,,,0.00,0.000000,,2013-10-14 06:13:00,
2013-10-14 01:22:00,55.0,45.0,-100.00,ESE,108,1.0,4.0,70,0.00,,,0.00,0.000000,,2013-10-14 06:22:00,
2013-10-14 01:31:00,54.0,47.0,-100.00,NE,51,1.0,4.0,77,0.00,,,0.00,0.000000,,2013-10-14 06:31:00,
2013-10-14 01:52:00,54.0,47.0,-100.00,NE,51,1.0,4.0,77,0.00,,,0.00,0.000000,,2013-10-14 06:52:00,
2013-10-14 02:02:00,54.0,47.0,-100.00,NE,51,1.0,4.0,77,0.00,,,0.00,0.000000,,2013-10-14 07:02:00,
2013-10-14 02:11:00,54.0,47.0,-100.00,NE,51,1.0,4.0,77,0.00,,,0.00,0.000000,,2013-10-14 07:11:00,
2013-10-14 02:22:00,54.0,47.0,-100.00,NE,51,1.0,4.0,77,0.00,,,0.00,0.000000,,2013-10-14 07:22:00,
2013-10-14 02:31:00,55.0,46.0,-100.00,ENE,76,1.0,4.0,71,0.00,,,0.00,0.000000,,2013-10-14 07:31:00,
2013-10-14 02:52:00,55.0,46.0,-100.00,ENE,76,1.0,4.0,71,0.00,,,0.00,0.000000,,2013-10-14 07:52:00,
2013-10-14 03:02:00,55.0,46.0,-100.00,ENE,76,1.0,4.0,71,0.00,,,0.00,0.000000,,2013-10-14 08:02:00,
2013-10-14 03:12:00,55.0,46.0,-100.00,ENE,76,1.0,4.0,71,0.00,,,0.00,0.000000,,2013-10-14 08:12:00,
2013-10-14 03:22:00,55.0,46.0,-100.00,ENE,76,1.0,4.0,71,0.00,,,0.00,0.000000,,2013-10-14 08:22:00,
2013-10-14 03:31:00,56.0,46.0,-100.00,North,4,2.0,7.0,69,0.00,,,0.00,0.000000,,2013-10-14 08:31:00,
2013-10-14 03:52:00,56.0,46.0,-100.00,North,4,2.0,7.0,69,0.00,,,0.00,0.000000,,2013-10-14 08:52:00,
2013-10-14 04:01:00,56.0,46.0,-100.00,North,4,2.0,7.0,69,0.00,,,0.00,0.000000,,2013-10-14 09:01:00,
2013-10-14 04:11:00,56.0,46.0,-100.00,North,4,2.0,7.0,69,0.00,,,0.00,0.000000,,2013-10-14 09:11:00,
2013-10-14 04:22:00,56.0,46.0,-100.00,North,4,2.0,7.0,69,0.00,,,0.00,0.000000,,2013-10-14 09:22:00,
2013-10-14 04:31:00,55.0,45.0,-100.00,ENE,74,1.0,8.0,69,0.00,,,0.00,0.000000,,2013-10-14 09:31:00,
2013-10-14 04:53:00,55.0,45.0,-100.00,ENE,74,1.0,8.0,69,0.00,,,0.00,0.000000,,2013-10-14 09:53:00,
2013-10-14 05:03:00,55.0,45.0,-100.00,ENE,74,1.0,8.0,69,0.00,,,0.00,0.000000,,2013-10-14 10:03:00,
2013-10-14 05:13:00,55.0,45.0,-100.00,ENE,74,1.0,8.0,69,0.00,,,0.00,0.000000,,2013-10-14 10:13:00,
2013-10-14 05:23:00,55.0,45.0,-100.00,ENE,74,1.0,8.0,69,0.00,,,0.00,0.000000,,2013-10-14 10:23:00,
2013-10-14 05:31:00,52.0,47.0,-100.00,NNE,30,1.0,3.0,84,0.00,,,0.00,0.000000,,2013-10-14 10:31:00,
2013-10-14 05:53:00,52.0,47.0,-100.00,NNE,30,1.0,3.0,84,0.00,,,0.00,0.000000,,2013-10-14 10:53:00,
2013-10-14 06:02:00,52.0,47.0,-100.00,NNE,30,1.0,3.0,84,0.00,,,0.00,0.000000,,2013-10-14 11:02:00,
2013-10-14 06:11:00,52.0,47.0,-100.00,NNE,30,1.0,3.0,84,0.00,,,0.00,0.000000,,2013-10-14 11:11:00,
2013-10-14 06:22:00,52.0,47.0,-100.00,NNE,30,1.0,3.0,84,0.00,,,0.00,0.000000,,2013-10-14 11:22:00,
2013-10-14 06:31:00,52.0,46.0,-100.00,ENE,69,2.0,5.0,79,0.00,,,0.00,0.000000,,2013-10-14 11:31:00,
2013-10-14 06:52:00,52.0,46.0,-100.00,ENE,69,2.0,5.0,79,0.00,,,0.00,0.000000,,2013-10-14 11:52:00,
2013-10-14 07:02:00,52.0,46.0,-100.00,ENE,69,2.0,5.0,79,0.00,,,0.00,0.000000,,2013-10-14 12:02:00,
2013-10-14 07:12:00,52.0,46.0,-100.00,ENE,69,2.0,5.0,79,0.00,,,0.00,0.000000,,2013-10-14 12:12:00,
2013-10-14 07:22:00,52.0,46.0,-100.00,ENE,69,2.0,5.0,79,0.00,,,0.00,0.000000,,2013-10-14 12:22:00,
2013-10-14 07:31:00,51.0,46.0,-100.00,ENE,60,2.0,5.0,84,0.00,,,0.00,7.000000,,2013-10-14 12:31:00,
2013-10-14 07:52:00,51.0,46.0,-100.00,ENE,60,2.0,5.0,84,0.00,,,0.00,7.000000,,2013-10-14 12:52:00,
2013-10-14 08:02:00,51.0,46.0,-100.00,ENE,60,2.0,5.0,84,0.00,,,0.00,7.000000,,2013-10-14 13:02:00,
2013-10-14 08:11:00,51.0,46.0,-100.00,ENE,60,2.0,5.0,84,0.00,,,0.00,7.000000,,2013-10-14 13:11:00,
2013-10-14 08:21:00,51.0,46.0,-100.00,ENE,60,2.0,5.0,84,0.00,,,0.00,7.000000,,2013-10-14 13:21:00,
2013-10-14 08:31:00,59.0,49.0,-100.00,East,92,3.0,5.0,69,0.00,,,0.00,156.000000,,2013-10-14 13:31:00,
2013-10-14 08:52:00,59.0,49.0,-100.00,East,92,3.0,5.0,69,0.00,,,0.00,156.000000,,2013-10-14 13:52:00,
2013-10-14 09:02:00,59.0,49.0,-100.00,East,92,3.0,5.0,69,0.00,,,0.00,156.000000,,2013-10-14 14:02:00,
2013-10-14 09:11:00,59.0,49.0,-100.00,East,92,3.0,5.0,69,0.00,,,0.00,156.000000,,2013-10-14 14:11:00,
2013-10-14 09:22:00,59.0,49.0,-100.00,East,92,3.0,5.0,69,0.00,,,0.00,156.000000,,2013-10-14 14:22:00,
2013-10-14 09:31:00,63.0,51.0,-100.00,ESE,107,5.0,9.0,65,0.00,,,0.00,347.000000,,2013-10-14 14:31:00,
2013-10-14 09:52:00,63.0,51.0,-100.00,ESE,107,5.0,9.0,65,0.00,,,0.00,347.000000,,2013-10-14 14:52:00,
2013-10-14 10:01:00,63.0,51.0,-100.00,ESE,107,5.0,9.0,65,0.00,,,0.00,347.000000,,2013-10-14 15:01:00,
2013-10-14 10:11:00,63.0,51.0,-100.00,ESE,107,5.0,9.0,65,0.00,,,0.00,347.000000,,2013-10-14 15:11:00,
2013-10-14 10:21:00,63.0,51.0,-100.00,ESE,107,5.0,9.0,65,0.00,,,0.00,347.000000,,2013-10-14 15:21:00,
2013-10-14 10:31:00,67.0,54.0,-100.00,NE,52,3.0,7.0,62,0.00,,,0.00,506.000000,,2013-10-14 15:31:00,
2013-10-14 10:54:00,67.0,54.0,-100.00,NE,52,3.0,7.0,62,0.00,,,0.00,506.000000,,2013-10-14 15:54:00,
2013-10-14 11:03:00,67.0,54.0,-100.00,NE,52,3.0,7.0,62,0.00,,,0.00,506.000000,,2013-10-14 16:03:00,
2013-10-14 11:13:00,67.0,54.0,-100.00,NE,52,3.0,7.0,62,0.00,,,0.00,506.000000,,2013-10-14 16:13:00,
2013-10-14 11:23:00,67.0,54.0,-100.00,NE,52,3.0,7.0,62,0.00,,,0.00,506.000000,,2013-10-14 16:23:00,
2013-10-14 11:31:00,70.0,57.0,-100.00,NNE,22,2.0,5.0,63,0.00,,,0.00,544.000000,,2013-10-14 16:31:00,
2013-10-14 11:53:00,70.0,57.0,-100.00,NNE,22,2.0,5.0,63,0.00,,,0.00,544.000000,,2013-10-14 16:53:00,
2013-10-14 12:02:00,70.0,57.0,-100.00,NNE,22,2.0,5.0,63,0.00,,,0.00,544.000000,,2013-10-14 17:02:00,
2013-10-14 12:12:00,70.0,57.0,-100.00,NNE,22,2.0,5.0,63,0.00,,,0.00,544.000000,,2013-10-14 17:12:00,
2013-10-14 12:22:00,70.0,57.0,-100.00,NNE,22,2.0,5.0,63,0.00,,,0.00,544.000000,,2013-10-14 17:22:00,
2013-10-14 12:31:00,72.0,59.0,-100.00,ESE,114,3.0,6.0,64,0.00,,,0.00,442.000000,,2013-10-14 17:31:00,
2013-10-14 12:52:00,72.0,59.0,-100.00,ESE,114,3.0,6.0,64,0.00,,,0.00,442.000000,,2013-10-14 17:52:00,
2013-10-14 13:01:00,72.0,59.0,-100.00,ESE,114,3.0,6.0,64,0.00,,,0.00,442.000000,,2013-10-14 18:01:00,
2013-10-14 13:12:00,72.0,59.0,-100.00,ESE,114,3.0,6.0,64,0.00,,,0.00,442.000000,,2013-10-14 18:12:00,
2013-10-14 13:22:00,72.0,59.0,-100.00,ESE,114,3.0,6.0,64,0.00,,,0.00,442.000000,,2013-10-14 18:22:00,
2013-10-14 13:31:00,74.0,60.0,-100.00,East,84,3.0,7.0,61,0.00,,,0.00,583.000000,,2013-10-14 18:31:00,
2013-10-14 13:52:00,74.0,60.0,-100.00,East,84,3.0,7.0,61,0.00,,,0.00,583.000000,,2013-10-14 18:52:00,
2013-10-14 14:02:00,74.0,60.0,-100.00,East,84,3.0,7.0,61,0.00,,,0.00,583.000000,,2013-10-14 19:02:00,
2013-10-14 14:11:00,74.0,60.0,-100.00,East,84,3.0,7.0,61,0.00,,,0.00,583.000000,,2013-10-14 19:11:00,
2013-10-14 14:22:00,74.0,60.0,-100.00,East,84,3.0,7.0,61,0.00,,,0.00,583.000000,,2013-10-14 19:22:00,
2013-10-14 14:31:00,76.0,61.0,-100.00,ENE,74,4.0,8.0,59,0.00,,,0.00,569.000000,,2013-10-14 19:31:00,
2013-10-14 14:52:00,76.0,61.0,-100.00,ENE,74,4.0,8.0,59,0.00,,,0.00,569.000000,,2013-10-14 19:52:00,
2013-10-14 15:02:00,76.0,61.0,-100.00,ENE,74,4.0,8.0,59,0.00,,,0.00,569.000000,,2013-10-14 20:02:00,
2013-10-14 15:11:00,76.0,61.0,-100.00,ENE,74,4.0,8.0,59,0.00,,,0.00,569.000000,,2013-10-14 20:11:00,
2013-10-14 15:22:00,76.0,61.0,-100.00,ENE,74,4.0,8.0,59,0.00,,,0.00,569.000000,,2013-10-14 20:22:00,
2013-10-14 15:31:00,77.0,62.0,-100.00,East,81,3.0,7.0,59,0.00,,,0.00,504.000000,,2013-10-14 20:31:00,
2013-10-14 15:52:00,77.0,62.0,-100.00,East,81,3.0,7.0,59,0.00,,,0.00,504.000000,,2013-10-14 20:52:00,
2013-10-14 16:02:00,77.0,62.0,-100.00,East,81,3.0,7.0,59,0.00,,,0.00,504.000000,,2013-10-14 21:02:00,
2013-10-14 16:12:00,77.0,62.0,-100.00,East,81,3.0,7.0,59,0.00,,,0.00,504.000000,,2013-10-14 21:12:00,
2013-10-14 16:22:00,77.0,62.0,-100.00,East,81,3.0,7.0,59,0.00,,,0.00,504.000000,,2013-10-14 21:22:00,
2013-10-14 16:31:00,73.0,63.0,-100.00,ENE,61,2.0,5.0,71,0.00,,,0.00,237.000000,,2013-10-14 21:31:00,
2013-10-14 16:55:00,73.0,63.0,-100.00,ENE,61,2.0,5.0,71,0.00,,,0.00,237.000000,,2013-10-14 21:55:00,
2013-10-14 17:04:00,73.0,63.0,-100.00,ENE,61,2.0,5.0,71,0.00,,,0.00,237.000000,,2013-10-14 22:04:00,
2013-10-14 17:13:00,73.0,63.0,-100.00,ENE,61,2.0,5.0,71,0.00,,,0.00,237.000000,,2013-10-14 22:13:00,
2013-10-14 17:24:00,73.0,63.0,-100.00,ENE,61,2.0,5.0,71,0.00,,,0.00,237.000000,,2013-10-14 22:24:00,
2013-10-14 17:31:00,69.0,63.0,-100.00,NE,44,0.0,4.0,81,0.00,,,0.00,92.000000,,2013-10-14 22:31:00,
2013-10-14 17:54:00,69.0,63.0,-100.00,NE,44,0.0,4.0,81,0.00,,,0.00,92.000000,,2013-10-14 22:54:00,
2013-10-14 18:03:00,69.0,63.0,-100.00,NE,44,0.0,4.0,81,0.00,,,0.00,92.000000,,2013-10-14 23:03:00,
2013-10-14 18:12:00,69.0,63.0,-100.00,NE,44,0.0,4.0,81,0.00,,,0.00,92.000000,,2013-10-14 23:12:00,
2013-10-14 18:22:00,69.0,63.0,-100.00,NE,44,0.0,4.0,81,0.00,,,0.00,92.000000,,2013-10-14 23:22:00,
2013-10-14 18:31:00,65.0,62.0,-100.00,ENE,59,0.0,3.0,90,0.00,,,0.00,13.000000,,2013-10-14 23:31:00,
2013-10-14 18:53:00,65.0,62.0,-100.00,ENE,59,0.0,3.0,90,0.00,,,0.00,13.000000,,2013-10-14 23:53:00,
2013-10-14 19:02:00,65.0,62.0,-100.00,ENE,59,0.0,3.0,90,0.00,,,0.00,13.000000,,2013-10-15 00:02:00,
2013-10-14 19:12:00,65.0,62.0,-100.00,ENE,59,0.0,3.0,90,0.00,,,0.00,13.000000,,2013-10-15 00:12:00,
2013-10-14 19:22:00,65.0,62.0,-100.00,ENE,59,0.0,3.0,90,0.00,,,0.00,13.000000,,2013-10-15 00:22:00,
2013-10-14 19:31:00,65.0,62.0,-100.00,East,80,1.0,3.0,91,0.00,,,0.00,0.000000,,2013-10-15 00:31:00,
2013-10-14 19:52:00,65.0,62.0,-100.00,East,80,1.0,3.0,91,0.00,,,0.00,0.000000,,2013-10-15 00:52:00,
2013-10-14 20:02:00,65.0,62.0,-100.00,East,80,1.0,3.0,91,0.00,,,0.00,0.000000,,2013-10-15 01:02:00,
2013-10-14 20:12:00,65.0,62.0,-100.00,East,80,1.0,3.0,91,0.00,,,0.00,0.000000,,2013-10-15 01:12:00,
2013-10-14 20:22:00,65.0,62.0,-100.00,East,80,1.0,3.0,91,0.00,,,0.00,0.000000,,2013-10-15 01:22:00,
2013-10-14 20:31:00,65.0,61.0,-100.00,ESE,104,3.0,5.0,88,0.00,,,0.00,0.000000,,2013-10-15 01:31:00,
2013-10-14 20:52:00,65.0,61.0,-100.00,ESE,104,3.0,5.0,88,0.00,,,0.00,0.000000,,2013-10-15 01:52:00,
2013-10-14 21:03:00,65.0,61.0,-100.00,ESE,104,3.0,5.0,88,0.00,,,0.00,0.000000,,2013-10-15 02:03:00,
2013-10-14 21:12:00,65.0,61.0,-100.00,ESE,104,3.0,5.0,88,0.00,,,0.00,0.000000,,2013-10-15 02:12:00,
2013-10-14 21:22:00,65.0,61.0,-100.00,ESE,104,3.0,5.0,88,0.00,,,0.00,0.000000,,2013-10-15 02:22:00,
2013-10-14 21:31:00,64.0,61.0,-100.00,East,95,2.0,6.0,89,0.00,,,0.00,0.000000,,2013-10-15 02:31:00,
2013-10-14 21:52:00,64.0,61.0,-100.00,East,95,2.0,6.0,89,0.00,,,0.00,0.000000,,2013-10-15 02:52:00,
2013-10-14 22:02:00,64.0,61.0,-100.00,East,95,2.0,6.0,89,0.00,,,0.00,0.000000,,2013-10-15 03:02:00,
2013-10-14 22:12:00,64.0,61.0,-100.00,East,95,2.0,6.0,89,0.00,,,0.00,0.000000,,2013-10-15 03:12:00,
2013-10-14 22:23:00,64.0,61.0,-100.00,East,95,2.0,6.0,89,0.00,,,0.00,0.000000,,2013-10-15 03:23:00,
2013-10-14 22:31:00,64.0,61.0,-100.00,ESE,111,5.0,8.0,89,0.00,,,0.00,0.000000,,2013-10-15 03:31:00,
2013-10-14 22:55:00,64.0,61.0,-100.00,ESE,111,5.0,8.0,89,0.00,,,0.00,0.000000,,2013-10-15 03:55:00,
2013-10-14 23:04:00,64.0,61.0,-100.00,ESE,111,5.0,8.0,89,0.00,,,0.00,0.000000,,2013-10-15 04:04:00,
2013-10-14 23:14:00,64.0,61.0,-100.00,ESE,111,5.0,8.0,89,0.00,,,0.00,0.000000,,2013-10-15 04:14:00,
2013-10-14 23:24:00,64.0,61.0,-100.00,ESE,111,5.0,8.0,89,0.00,,,0.00,0.000000,,2013-10-15 04:24:00,
2013-10-14 23:31:00,64.0,61.0,-100.00,ESE,106,4.0,8.0,89,0.00,,,0.00,0.000000,,2013-10-15 04:31:00,
2013-10-14 23:54:00,64.0,61.0,-100.00,ESE,106,4.0,8.0,89,0.00,,,0.00,0.000000,,2013-10-15 04:54:00,